El Vigia, Venezuela
Current Conditions -  °F | °C
As of 8:00 AM on Friday 19 Dec 2014 (Local Time) from SVVG Reporting Station
Overcast Overcast  
Wind Chill: 24°   Ceiling: 1700
Heat Index: 24°   Visibility: 6mi
Dew Point: 23°   Wind: 2mph
Humidity: 94%   Direction: 90°E
Pressure: 29.83"   Gusts: NA
Location:  8.63°N, 71.65°W
Report Text: SVVG 191200Z 09002KT 9999 OVC017 24/23 Q1010
Loading
Personal Weather Stations






























Interactive Weather Map New forecast layout! Learn more

10-Day Weather Forecast

Advertisements
Track Severe Weather on mobile